Time;durP1;ratioP1;P1;durP2;ratioP2;P2;SDS_P1;SDS_P2;PMS_P1;PMS_P2;Temp;Humidity;BMP_temperature;BMP_pressure;BME280_temperature;BME280_humidity;BME280_pressure;Samples;Min_cycle;Max_cycle;Signal;HPM_P1;HPM_P2
2022/01/20 00:00:33;;;;;;;15.90;2.17;;;;;;;-145.18;100.00;46806.91;5029877;28;20563;-73
2022/01/20 00:03:01;;;;;;;21.13;2.33;;;;;;;-145.18;100.00;46803.00;5030702;28;20259;-73
2022/01/20 00:05:38;;;;;;;17.27;2.10;;;;;;;-145.18;100.00;46795.19;5029749;28;20271;-71
2022/01/20 00:27:26;;;;;;;15.07;1.60;;;;;;;-145.18;100.00;46787.38;5029894;28;20290;-74
2022/01/20 00:32:43;;;;;;;11.23;1.60;;;;;;;-145.18;100.00;46789.31;5029892;28;20294;-71
2022/01/20 00:37:34;;;;;;;19.83;2.30;;;;;;;-145.18;100.00;46818.63;5029793;28;20835;-73
2022/01/20 00:40:00;;;;;;;9.67;1.77;;;;;;;-145.18;100.00;46832.28;5029531;28;20409;-73
2022/01/20 00:42:25;;;;;;;24.50;4.60;;;;;;;-145.18;100.00;46834.25;5029698;28;20139;-73
2022/01/20 00:44:51;;;;;;;27.40;2.23;;;;;;;-145.18;100.00;46840.09;5029749;28;20087;-73
2022/01/20 00:47:18;;;;;;;12.93;1.70;;;;;;;-145.18;100.00;46836.19;5030401;28;20149;-73
2022/01/20 00:49:44;;;;;;;22.63;2.27;;;;;;;-145.18;100.00;46842.06;5029589;28;20084;-71
2022/01/20 00:52:10;;;;;;;16.50;2.43;;;;;;;-145.18;100.00;46828.38;5029918;28;20358;-73
2022/01/20 00:54:36;;;;;;;15.63;2.47;;;;;;;-145.18;100.00;46814.72;5027675;28;20410;-72
2022/01/20 00:57:02;;;;;;;20.60;1.93;;;;;;;-145.18;100.00;46814.72;5029104;28;20034;-71
2022/01/20 00:59:29;;;;;;;24.87;1.97;;;;;;;-145.18;100.00;46808.84;5028469;28;20053;-73
2022/01/20 01:02:00;;;;;;;14.23;1.50;;;;;;;-145.18;100.00;46804.94;5028924;28;20270;-71
2022/01/20 01:04:27;;;;;;;22.03;2.63;;;;;;;-145.18;100.00;46804.94;5027715;28;20748;-72
2022/01/20 01:09:39;;;;;;;22.60;2.63;;;;;;;-145.18;100.00;46818.63;5013673;28;20697;-73
2022/01/20 01:12:08;;;;;;;16.20;1.90;;;;;;;-145.18;100.00;46804.94;5028926;28;20636;-72
2022/01/20 01:14:34;;;;;;;24.80;2.30;;;;;;;-145.18;100.00;46795.19;5028920;28;20266;-73
2022/01/20 01:24:43;;;;;;;12.03;1.17;;;;;;;-145.18;100.00;46808.84;5028761;28;20037;-73
2022/01/20 01:27:10;;;;;;;9.67;1.30;;;;;;;-145.18;100.00;46810.81;5028742;28;20103;-71
2022/01/20 01:32:24;;;;;;;24.73;1.80;;;;;;;-145.18;100.00;46832.28;5028879;28;21187;-72
2022/01/20 01:34:52;;;;;;;16.07;1.83;;;;;;;-145.18;100.00;46822.53;5028351;28;20417;-71
2022/01/20 01:38:22;;;;;;;12.77;1.93;;;;;;;-145.18;100.00;46845.97;5029036;28;20320;-73
2022/01/20 01:40:12;;;;;;;6.00;1.40;;;;;;;-145.18;100.00;46838.16;5028526;28;20271;-73
2022/01/20 01:42:48;;;;;;;9.37;1.57;;;;;;;-145.18;100.00;46867.44;5028359;28;20259;-73
2022/01/20 01:45:28;;;;;;;14.10;1.80;;;;;;;-145.18;100.00;46894.81;5028743;28;20344;-71
2022/01/20 01:47:54;;;;;;;17.30;2.97;;;;;;;-145.18;100.00;46910.44;5028830;28;20325;-72
2022/01/20 01:50:20;;;;;;;12.83;1.47;;;;;;;-145.18;100.00;46883.09;5028492;28;20829;-73
2022/01/20 01:52:46;;;;;;;11.47;1.57;;;;;;;-145.18;100.00;46885.03;5028110;28;20298;-72
2022/01/20 01:55:12;;;;;;;8.00;1.20;;;;;;;-145.18;100.00;46896.75;5028213;28;20267;-73
2022/01/20 01:57:37;;;;;;;10.50;1.30;;;;;;;-145.18;100.00;46871.38;5028254;28;20048;-71
2022/01/20 02:00:06;;;;;;;8.67;1.10;;;;;;;-145.18;100.00;46867.44;5027008;28;20054;-73
2022/01/20 02:02:31;;;;;;;19.13;1.87;;;;;;;-145.18;100.00;46879.19;5028736;28;20037;-71
2022/01/20 02:04:57;;;;;;;13.20;1.90;;;;;;;-145.18;100.00;46861.59;5026713;28;20766;-71
2022/01/20 02:20:38;;;;;;;15.70;1.67;;;;;;;-145.18;100.00;46824.47;5027708;28;20282;-73
2022/01/20 02:23:05;;;;;;;12.20;1.10;;;;;;;-145.18;100.00;46808.84;5028051;28;20762;-73
2022/01/20 02:25:33;;;;;;;14.73;3.30;;;;;;;-145.18;100.00;46806.91;5027542;28;20723;-73
2022/01/20 02:28:01;;;;;;;18.60;1.87;;;;;;;-145.18;100.00;46806.91;5027582;28;20658;-73
2022/01/20 02:30:28;;;;;;;17.67;1.60;;;;;;;-145.18;100.00;46818.63;5027366;28;20267;-73
2022/01/20 02:32:59;;;;;;;14.90;2.27;;;;;;;-145.18;100.00;46812.75;5027869;28;20255;-73
2022/01/20 02:35:28;;;;;;;14.27;1.40;;;;;;;-145.18;100.00;46857.69;5026137;28;20694;-73
2022/01/20 02:38:05;;;;;;;13.00;2.03;;;;;;;-145.18;100.00;46828.38;5027606;28;20327;-73
2022/01/20 02:45:53;;;;;;;9.13;1.73;;;;;;;-145.18;100.00;46888.94;5027616;28;20266;-73
2022/01/20 02:48:18;;;;;;;18.73;4.13;;;;;;;-145.18;100.00;46908.47;5027796;28;20759;-73
2022/01/20 02:50:43;;;;;;;7.07;1.43;;;;;;;-145.18;100.00;46912.38;5027101;28;20037;-73
2022/01/20 02:53:09;;;;;;;14.70;1.57;;;;;;;-145.18;100.00;46935.81;5027556;28;20041;-73
2022/01/20 02:55:34;;;;;;;10.77;1.70;;;;;;;-145.18;100.00;46933.88;5026862;28;20037;-73
2022/01/20 02:58:00;;;;;;;17.70;2.37;;;;;;;-145.18;100.00;46947.53;5028339;28;20037;-73
2022/01/20 03:00:26;;;;;;;8.63;1.27;;;;;;;-145.18;100.00;46937.78;5024687;28;20041;-73
2022/01/20 03:02:52;;;;;;;7.07;1.10;;;;;;;-145.18;100.00;46928.00;5265973;22;20044;-71
2022/01/20 03:05:18;;;;;;;8.80;1.93;;;;;;;-145.18;100.00;46939.72;5084290;28;20269;-71
2022/01/20 03:07:45;;;;;;;17.33;1.30;;;;;;;-145.18;100.00;46953.41;5086814;28;20086;-71
2022/01/20 03:10:11;;;;;;;8.70;1.20;;;;;;;-145.18;100.00;46941.69;5068679;28;20702;-71
2022/01/20 03:12:36;;;;;;;12.83;1.50;;;;;;;-145.18;100.00;46965.13;5086542;28;20276;-71
2022/01/20 03:15:02;;;;;;;10.87;1.30;;;;;;;-145.18;100.00;46967.09;5086837;28;20062;-71
2022/01/20 03:17:28;;;;;;;18.83;1.50;;;;;;;-145.18;100.00;46937.78;5086485;28;20040;-71
2022/01/20 03:19:54;;;;;;;16.83;1.77;;;;;;;-145.18;100.00;46963.19;5069266;28;20047;-71
2022/01/20 03:22:19;;;;;;;14.87;1.70;;;;;;;-145.18;100.00;46967.09;5087280;28;20304;-71
2022/01/20 03:24:44;;;;;;;19.20;1.57;;;;;;;-145.18;100.00;46961.22;5087022;28;20044;-71
2022/01/20 03:27:10;;;;;;;11.90;1.70;;;;;;;-145.18;100.00;46933.88;5086190;28;20037;-71
2022/01/20 03:29:36;;;;;;;17.03;1.97;;;;;;;-145.18;100.00;46937.78;5090207;28;20070;-71
2022/01/20 03:32:02;;;;;;;44.30;3.90;;;;;;;-145.18;100.00;46933.88;5090096;28;20051;-71
2022/01/20 03:34:28;;;;;;;25.80;2.57;;;;;;;-145.18;100.00;46941.69;5090920;28;20066;-72
2022/01/20 03:36:53;;;;;;;14.53;1.70;;;;;;;-145.18;100.00;46951.44;5090994;28;20296;-71
2022/01/20 03:39:19;;;;;;;29.07;2.17;;;;;;;-145.18;100.00;46976.84;5090664;28;20131;-71
2022/01/20 03:41:45;;;;;;;18.70;2.00;;;;;;;-145.18;100.00;46974.91;5090584;28;20106;-71
2022/01/20 03:44:10;;;;;;;10.03;1.63;;;;;;;-145.18;100.00;47013.97;5090449;28;20040;-71
2022/01/20 03:46:36;;;;;;;29.97;3.80;;;;;;;-145.18;100.00;46969.03;5090825;28;20040;-71
2022/01/20 03:51:48;;;;;;;26.57;2.60;;;;;;;-145.18;100.00;46988.56;5048485;28;20488;-71
2022/01/20 03:54:14;;;;;;;17.37;2.93;;;;;;;-145.18;100.00;47047.19;5090395;28;20486;-71
2022/01/20 03:56:39;;;;;;;17.83;3.20;;;;;;;-145.18;100.00;47183.94;5089767;28;20041;-71
2022/01/20 03:59:04;;;;;;;22.20;3.20;;;;;;;-145.18;100.00;47258.16;5089904;28;20518;-71
2022/01/20 04:01:30;;;;;;;20.70;2.37;;;;;;;-145.18;100.00;47351.94;5087198;28;20041;-71
2022/01/20 04:03:55;;;;;;;12.60;1.63;;;;;;;-145.18;100.00;47344.13;5069734;28;20052;-71
2022/01/20 04:06:22;;;;;;;20.77;2.10;;;;;;;-145.18;100.00;47432.03;5035851;28;20409;-71
2022/01/20 04:08:48;;;;;;;19.20;2.40;;;;;;;-145.18;100.00;47408.59;5069789;28;20063;-71
2022/01/20 04:11:17;;;;;;;23.50;2.37;;;;;;;-145.18;100.00;47336.31;5069725;28;20320;-71
2022/01/20 04:13:42;;;;;;;13.60;1.87;;;;;;;-145.18;100.00;47250.34;5069879;28;20043;-71
2022/01/20 04:16:16;;;;;;;22.37;2.70;;;;;;;-145.18;100.00;47172.19;5069828;28;20274;-71
2022/01/20 04:18:53;;;;;;;26.90;2.53;;;;;;;-145.18;100.00;47125.31;5069433;28;20424;-71
2022/01/20 04:21:29;;;;;;;18.53;2.57;;;;;;;-145.18;100.00;47090.16;5069915;28;20653;-71
2022/01/20 04:23:56;;;;;;;11.23;1.40;;;;;;;-145.18;100.00;47027.63;5069093;28;20781;-71
2022/01/20 04:26:23;;;;;;;11.73;1.70;;;;;;;-145.18;100.00;47013.97;5069671;28;20993;-71
2022/01/20 04:28:53;;;;;;;15.53;1.47;;;;;;;-145.18;100.00;47002.25;5069247;28;20327;-71
2022/01/20 04:31:20;;;;;;;7.53;1.10;;;;;;;-145.18;100.00;46955.34;5069762;28;20277;-70
2022/01/20 04:33:45;;;;;;;5.97;1.43;;;;;;;-145.18;100.00;46916.28;5069395;28;20320;-70
2022/01/20 04:36:11;;;;;;;12.67;1.43;;;;;;;-145.18;100.00;46926.06;5069826;28;20614;-70
2022/01/20 04:38:36;;;;;;;15.00;2.10;;;;;;;-145.18;100.00;46912.38;5070116;28;20128;-71
2022/01/20 04:41:02;;;;;;;8.50;1.10;;;;;;;-145.18;100.00;46887.00;5068940;28;20603;-71
2022/01/20 04:43:27;;;;;;;5.20;1.17;;;;;;;-145.18;100.00;46881.13;5068890;28;20037;-70
2022/01/20 04:46:02;;;;;;;4.53;1.27;;;;;;;-145.18;100.00;46865.50;5069436;28;20090;-71
2022/01/20 04:59:08;;;;;;;9.80;1.10;;;;;;;-145.18;100.00;46779.56;5068995;28;20280;-70
2022/01/20 05:01:33;;;;;;;8.77;1.53;;;;;;;-145.18;100.00;46763.91;5067929;28;20273;-71
2022/01/20 05:04:01;;;;;;;6.60;1.10;;;;;;;-145.18;100.00;46756.09;5050603;28;20568;-71
2022/01/20 05:06:26;;;;;;;13.13;1.40;;;;;;;-145.18;100.00;46761.97;5069089;28;20393;-70
2022/01/20 05:08:52;;;;;;;12.50;2.10;;;;;;;-145.18;100.00;46769.78;5068601;28;20273;-71
2022/01/20 05:11:18;;;;;;;6.87;1.87;;;;;;;-145.18;100.00;46773.69;5069166;28;20103;-70
2022/01/20 05:13:44;;;;;;;11.00;1.70;;;;;;;-145.18;100.00;46761.97;5069288;28;20312;-70
2022/01/20 05:16:10;;;;;;;12.00;1.53;;;;;;;-145.18;100.00;46765.88;5068690;28;20042;-70
2022/01/20 05:18:36;;;;;;;7.97;1.20;;;;;;;-145.18;100.00;46775.66;5068395;28;20420;-70
2022/01/20 05:21:02;;;;;;;5.97;1.17;;;;;;;-145.18;100.00;46797.13;5068509;28;20308;-71
2022/01/20 05:23:28;;;;;;;18.20;2.20;;;;;;;-145.18;100.00;46816.66;5068588;28;20269;-71
2022/01/20 05:25:53;;;;;;;7.70;1.67;;;;;;;-145.18;100.00;46799.09;5033901;28;20681;-71
2022/01/20 05:28:19;;;;;;;13.57;2.50;;;;;;;-145.18;100.00;46845.97;5069083;28;20036;-71
2022/01/20 05:30:44;;;;;;;19.00;2.77;;;;;;;-145.18;100.00;46853.78;5067939;28;20634;-71
2022/01/20 05:33:10;;;;;;;17.90;3.07;;;;;;;-145.18;100.00;46887.00;5065811;28;20131;-71
2022/01/20 05:35:35;;;;;;;29.50;3.00;;;;;;;-145.18;100.00;46924.09;5069414;28;20101;-70
2022/01/20 05:38:01;;;;;;;8.67;2.00;;;;;;;-145.18;100.00;46920.19;5067371;28;20082;-71
2022/01/20 05:40:26;;;;;;;13.30;1.90;;;;;;;-145.18;100.00;46959.25;5063716;28;20055;-71
2022/01/20 05:42:52;;;;;;;14.60;2.37;;;;;;;-145.18;100.00;46955.34;5068053;28;20047;-71
2022/01/20 05:45:19;;;;;;;11.80;2.60;;;;;;;-145.18;100.00;46961.22;5068104;28;20412;-71
2022/01/20 05:47:48;;;;;;;28.47;3.47;;;;;;;-145.18;100.00;46969.03;5067076;28;20269;-71
2022/01/20 05:50:18;;;;;;;15.30;3.00;;;;;;;-145.18;100.00;46978.81;5067737;28;20769;-71
2022/01/20 05:52:45;;;;;;;33.20;3.83;;;;;;;-145.18;100.00;46947.53;5066911;28;20269;-71
2022/01/20 05:55:14;;;;;;;16.30;1.93;;;;;;;-145.18;100.00;46945.59;5068031;28;20364;-71
2022/01/20 05:57:41;;;;;;;18.17;2.33;;;;;;;-145.18;100.00;46935.81;5067509;28;20785;-71
2022/01/20 06:00:10;;;;;;;18.93;2.70;;;;;;;-145.18;100.00;46926.06;5067944;28;20266;-70
2022/01/20 06:03:35;;;;;;;27.43;3.10;;;;;;;-145.18;100.00;46941.69;5067428;28;20285;-71
2022/01/20 06:05:21;;;;;;;14.90;1.38;;;;;;;-145.18;100.00;46965.13;5067913;28;20320;-71
2022/01/20 06:07:46;;;;;;;15.17;1.90;;;;;;;-145.18;100.00;46933.88;5067620;28;20626;-72
2022/01/20 06:10:12;;;;;;;23.00;2.00;;;;;;;-145.18;100.00;46945.59;5067009;28;20110;-72
2022/01/20 06:12:37;;;;;;;16.00;2.37;;;;;;;-145.18;100.00;46959.25;5067320;28;20068;-72
2022/01/20 06:15:03;;;;;;;15.53;1.73;;;;;;;-145.18;100.00;46959.25;5068191;28;20459;-72
2022/01/20 06:17:29;;;;;;;12.93;2.67;;;;;;;-145.18;100.00;46988.56;5067473;28;20029;-72
2022/01/20 06:19:55;;;;;;;27.23;3.70;;;;;;;-145.18;100.00;47019.81;5067024;28;20424;-72
2022/01/20 06:22:20;;;;;;;38.10;2.50;;;;;;;-145.18;100.00;47027.63;5067091;28;20269;-72
2022/01/20 06:24:46;;;;;;;22.97;2.87;;;;;;;-145.18;100.00;47115.56;5048927;28;20032;-72
2022/01/20 06:27:11;;;;;;;23.10;2.00;;;;;;;-145.18;100.00;47285.50;5067134;28;20045;-72
2022/01/20 06:29:37;;;;;;;26.77;1.90;;;;;;;-145.18;100.00;47611.78;5067597;28;20443;-72
2022/01/20 06:32:02;;;;;;;18.13;2.57;;;;;;;-145.18;100.00;47695.81;5067239;28;20049;-73
2022/01/20 06:34:28;;;;;;;24.33;4.17;;;;;;;-145.18;100.00;47713.38;5066832;28;20040;-72
2022/01/20 06:36:53;;;;;;;13.60;1.90;;;;;;;-145.18;100.00;47674.31;5067319;28;20028;-72
2022/01/20 06:39:18;;;;;;;19.00;2.43;;;;;;;-145.18;100.00;47674.31;5067077;28;20090;-72
2022/01/20 06:41:44;;;;;;;21.07;2.73;;;;;;;-145.18;100.00;47645.00;5049311;28;20552;-73
2022/01/20 06:44:09;;;;;;;21.50;2.97;;;;;;;-145.18;100.00;47664.53;5067089;28;20060;-72
2022/01/20 06:46:35;;;;;;;26.00;3.23;;;;;;;-145.18;100.00;47619.59;5067420;28;20036;-72
2022/01/20 06:49:01;;;;;;;14.67;1.93;;;;;;;-145.18;100.00;47666.50;5066638;28;20087;-72
2022/01/20 06:51:26;;;;;;;19.83;1.97;;;;;;;-145.18;100.00;47643.03;5049283;28;20044;-72
2022/01/20 06:53:51;;;;;;;18.33;2.30;;;;;;;-145.18;100.00;47609.84;5066382;28;20032;-72
2022/01/20 06:56:17;;;;;;;16.07;1.83;;;;;;;-145.18;100.00;47613.75;5067190;28;20102;-72
2022/01/20 06:58:42;;;;;;;6.90;1.27;;;;;;;-145.18;100.00;47629.38;5058703;28;20044;-72
2022/01/20 07:01:09;;;;;;;14.60;2.20;;;;;;;-145.18;100.00;47662.59;5066754;28;20041;-72
2022/01/20 07:03:34;;;;;;;19.27;3.17;;;;;;;-145.18;100.00;47652.81;5065085;28;20040;-72
2022/01/20 07:06:00;;;;;;;6.87;1.43;;;;;;;-145.18;100.00;47707.53;5066575;28;20339;-71
2022/01/20 07:08:25;;;;;;;11.23;1.00;;;;;;;-145.18;100.00;47738.78;5063715;28;20127;-72
2022/01/20 07:10:51;;;;;;;8.17;1.27;;;;;;;-145.18;100.00;47738.78;5065717;28;20512;-72
2022/01/20 07:13:16;;;;;;;11.77;2.13;;;;;;;-145.18;100.00;47740.75;5084767;28;20036;-71
2022/01/20 07:15:41;;;;;;;15.93;1.60;;;;;;;-145.18;100.00;47756.38;5084825;28;20086;-71
2022/01/20 07:18:07;;;;;;;14.87;1.60;;;;;;;-145.18;100.00;47773.97;5066514;28;20101;-71
2022/01/20 07:20:32;;;;;;;8.53;1.70;;;;;;;-145.18;100.00;47738.78;5084067;28;20044;-72
2022/01/20 07:22:58;;;;;;;8.73;1.00;;;;;;;-145.18;100.00;47730.97;5084234;28;20032;-72
2022/01/20 07:25:23;;;;;;;11.17;1.53;;;;;;;-145.18;100.00;47695.81;5085270;28;20036;-72
2022/01/20 07:27:49;;;;;;;7.90;1.43;;;;;;;-145.18;100.00;47648.91;5076135;28;20041;-72
2022/01/20 07:30:14;;;;;;;23.07;2.33;;;;;;;-145.18;100.00;47615.69;5064091;28;20512;-71
2022/01/20 07:32:40;;;;;;;17.80;1.37;;;;;;;-145.18;100.00;47545.34;5063800;28;20124;-71
2022/01/20 07:35:06;;;;;;;12.53;2.03;;;;;;;-145.18;100.00;47451.56;5063043;28;20045;-71
2022/01/20 07:37:32;;;;;;;15.67;1.60;;;;;;;-145.18;100.00;47297.22;5044864;28;20293;-71
2022/01/20 07:39:57;;;;;;;16.07;1.73;;;;;;;-145.18;100.00;47254.25;5042162;28;20050;-71
2022/01/20 07:42:22;;;;;;;3.90;0.60;;;;;;;-145.18;100.00;47269.88;5059388;28;20519;-71
2022/01/20 07:44:48;;;;;;;14.40;1.77;;;;;;;-145.18;100.00;47453.53;5062883;28;20576;-72
2022/01/20 07:47:13;;;;;;;17.80;1.80;;;;;;;-145.18;100.00;47605.94;5033209;28;20127;-71
2022/01/20 07:49:39;;;;;;;10.10;1.27;;;;;;;-145.18;100.00;47664.53;5033293;28;20132;-71
2022/01/20 07:52:05;;;;;;;12.17;1.33;;;;;;;-145.18;100.00;47699.72;5033153;28;20080;-71
2022/01/20 07:54:30;;;;;;;7.67;1.53;;;;;;;-145.18;100.00;47715.34;5056567;28;20045;-72
2022/01/20 07:56:56;;;;;;;7.30;1.10;;;;;;;-145.18;100.00;47693.84;5064732;28;20648;-72
2022/01/20 07:59:21;;;;;;;10.37;1.63;;;;;;;-145.18;100.00;47750.50;5063301;28;20044;-72
2022/01/20 08:01:46;;;;;;;11.13;1.57;;;;;;;-145.18;100.00;47721.19;5063590;28;20049;-72
2022/01/20 08:04:12;;;;;;;13.20;1.70;;;;;;;-145.18;100.00;47727.06;5063399;28;20056;-72
2022/01/20 08:06:37;;;;;;;16.27;2.47;;;;;;;-145.18;100.00;47738.78;5064673;28;20040;-73
2022/01/20 08:09:03;;;;;;;12.83;1.47;;;;;;;-145.18;100.00;47746.59;5063841;28;20052;-73
2022/01/20 08:11:28;;;;;;;9.90;1.47;;;;;;;-145.18;100.00;47732.94;5064908;28;20425;-72
2022/01/20 08:13:55;;;;;;;10.27;1.00;;;;;;;-145.18;100.00;47729.00;5064332;28;20079;-72
2022/01/20 08:16:21;;;;;;;8.13;1.70;;;;;;;-145.18;100.00;47752.47;5048750;28;20053;-72
2022/01/20 08:18:46;;;;;;;12.83;3.40;;;;;;;-145.18;100.00;47736.84;5066945;28;20261;-73
2022/01/20 08:21:12;;;;;;;15.03;1.43;;;;;;;-145.18;100.00;47707.53;5068931;28;20416;-73
2022/01/20 08:23:38;;;;;;;7.03;1.17;;;;;;;-145.18;100.00;47738.78;5039644;28;20033;-73
2022/01/20 08:26:03;;;;;;;23.30;1.80;;;;;;;-145.18;100.00;47719.25;5061193;28;20049;-72
2022/01/20 08:28:29;;;;;;;10.83;1.90;;;;;;;-145.18;100.00;47711.44;5049795;28;20048;-72
2022/01/20 08:30:55;;;;;;;6.77;1.67;;;;;;;-145.18;100.00;47729.00;5068541;28;20488;-73
2022/01/20 08:33:20;;;;;;;7.33;1.30;;;;;;;-145.18;100.00;47711.44;5067669;28;20040;-72
2022/01/20 08:35:46;;;;;;;12.13;2.50;;;;;;;-145.18;100.00;47684.06;5068758;28;20367;-73
2022/01/20 08:38:12;;;;;;;8.67;1.77;;;;;;;-145.18;100.00;47705.56;5064183;28;20051;-72
2022/01/20 08:40:38;;;;;;;10.47;1.70;;;;;;;-145.18;100.00;47687.97;5068466;28;20281;-72
2022/01/20 08:43:05;;;;;;;9.60;1.40;;;;;;;-145.18;100.00;47699.72;5067650;28;20048;-72
2022/01/20 08:45:33;;;;;;;7.03;0.80;;;;;;;-145.18;100.00;47682.13;5069038;28;20532;-72
2022/01/20 08:48:00;;;;;;;6.00;1.30;;;;;;;-145.18;100.00;47658.69;5065627;28;20273;-72
2022/01/20 08:50:30;;;;;;;8.93;2.07;;;;;;;-145.18;100.00;47658.69;5066879;28;20297;-72
2022/01/20 08:52:56;;;;;;;11.93;2.23;;;;;;;-145.18;100.00;47656.72;5067440;28;20285;-72
2022/01/20 08:55:23;;;;;;;9.40;1.70;;;;;;;-145.18;100.00;47639.13;5068587;28;20692;-72
2022/01/20 08:57:49;;;;;;;11.43;1.47;;;;;;;-145.18;100.00;47664.53;5066115;28;20289;-73
2022/01/20 09:00:16;;;;;;;16.57;1.67;;;;;;;-145.18;100.00;47664.53;5060349;28;20382;-73
2022/01/20 09:02:42;;;;;;;8.80;1.47;;;;;;;-145.18;100.00;47658.69;5068591;28;20533;-73
2022/01/20 09:05:08;;;;;;;7.17;1.47;;;;;;;-145.18;100.00;47668.44;5067553;28;20285;-72
2022/01/20 09:07:33;;;;;;;11.13;1.77;;;;;;;-145.18;100.00;47668.44;5067213;28;20453;-72
2022/01/20 09:10:00;;;;;;;15.83;2.10;;;;;;;-145.18;100.00;47662.59;5067395;28;20304;-73
2022/01/20 09:17:41;;;;;;;15.10;2.17;;;;;;;-145.18;100.00;47684.06;5067635;28;20281;-73
2022/01/20 09:20:07;;;;;;;12.10;1.27;;;;;;;-145.18;100.00;47693.84;5065803;28;20297;-72
2022/01/20 09:22:32;;;;;;;15.63;1.43;;;;;;;-145.18;100.00;47687.97;5050416;28;20404;-72
2022/01/20 09:24:58;;;;;;;10.20;1.60;;;;;;;-145.18;100.00;47686.03;5049754;28;20109;-73
2022/01/20 09:27:23;;;;;;;13.80;1.40;;;;;;;-145.18;100.00;47682.13;5068946;28;20035;-72
2022/01/20 09:29:48;;;;;;;8.57;1.63;;;;;;;-145.18;100.00;47660.63;5066852;28;20045;-72
2022/01/20 09:32:16;;;;;;;12.10;2.63;;;;;;;-145.18;100.00;47652.81;5067599;28;20044;-73
2022/01/20 09:34:42;;;;;;;8.20;1.40;;;;;;;-145.18;100.00;47648.91;5067603;28;20028;-72
2022/01/20 09:37:08;;;;;;;16.03;1.77;;;;;;;-145.18;100.00;47662.59;5067763;28;20334;-72
2022/01/20 09:39:37;;;;;;;15.73;1.97;;;;;;;-145.18;100.00;47627.41;5067300;28;20041;-73
2022/01/20 09:42:03;;;;;;;17.93;1.87;;;;;;;-145.18;100.00;47623.50;5049456;28;20277;-73
2022/01/20 09:44:28;;;;;;;8.50;1.53;;;;;;;-145.18;100.00;47633.28;5068036;28;20277;-73
2022/01/20 09:46:54;;;;;;;12.53;1.67;;;;;;;-145.18;100.00;47615.69;5049812;28;20288;-72
2022/01/20 09:49:20;;;;;;;12.17;1.93;;;;;;;-145.18;100.00;47596.16;5067321;28;20109;-73
2022/01/20 09:51:45;;;;;;;12.80;2.30;;;;;;;-145.18;100.00;47600.06;5067651;28;20273;-72
2022/01/20 09:54:11;;;;;;;15.17;1.97;;;;;;;-145.18;100.00;47605.94;5067034;28;20048;-73
2022/01/20 09:56:39;;;;;;;19.57;2.37;;;;;;;-145.18;100.00;47611.78;5067234;28;20479;-73
2022/01/20 09:59:05;;;;;;;20.50;2.43;;;;;;;-145.18;100.00;47621.56;5066824;28;20045;-73
2022/01/20 10:01:40;;;;;;;9.60;2.27;;;;;;;-145.18;100.00;47605.94;5067987;28;20258;-73
2022/01/20 10:04:06;;;;;;;11.40;2.75;;;;;;;-145.18;100.00;47566.84;5066358;28;20285;-73
2022/01/20 10:06:31;;;;;;;16.67;2.60;;;;;;;-145.18;100.00;47570.75;5066591;28;20052;-72
2022/01/20 10:08:59;;;;;;;8.40;1.87;;;;;;;-145.18;100.00;47580.53;5066368;28;20062;-72
2022/01/20 10:11:24;;;;;;;9.07;1.83;;;;;;;-145.18;100.00;47566.84;5066889;28;20032;-73
2022/01/20 10:13:50;;;;;;;8.87;1.77;;;;;;;-145.18;100.00;47570.75;5066280;28;20299;-73
2022/01/20 10:16:17;;;;;;;18.27;2.50;;;;;;;-145.18;100.00;47598.09;5066740;28;20618;-73
2022/01/20 10:18:48;;;;;;;13.50;2.30;;;;;;;-145.18;100.00;47574.66;5066579;28;20142;-73
2022/01/20 10:21:14;;;;;;;18.60;1.60;;;;;;;-145.18;100.00;47596.16;5066823;28;20272;-73
2022/01/20 10:23:45;;;;;;;18.03;2.07;;;;;;;-145.18;100.00;47594.19;5066165;28;20280;-73
2022/01/20 10:26:13;;;;;;;11.77;1.50;;;;;;;-145.18;100.00;47594.19;5048327;28;20297;-73
2022/01/20 10:29:00;;;;;;;13.93;1.87;;;;;;;-145.18;100.00;47613.75;5066075;28;20420;-73
2022/01/20 10:31:49;;;;;;;16.17;2.37;;;;;;;-145.18;100.00;47600.06;5066595;28;20285;-73
2022/01/20 10:34:37;;;;;;;7.70;1.97;;;;;;;-145.18;100.00;47588.34;5079064;28;20277;-73
2022/01/20 10:37:07;;;;;;;18.50;2.90;;;;;;;-145.18;100.00;47596.16;5066460;28;20285;-73
2022/01/20 10:39:34;;;;;;;14.43;2.47;;;;;;;-145.18;100.00;47588.34;5068011;28;20272;-73
2022/01/20 10:42:20;;;;;;;17.70;2.03;;;;;;;-145.18;100.00;47592.25;5062709;28;20376;-73
2022/01/20 10:44:47;;;;;;;15.87;1.60;;;;;;;-145.18;100.00;47582.47;5060608;28;20284;-73
2022/01/20 10:47:22;;;;;;;9.23;1.87;;;;;;;-145.18;100.00;47598.09;5066250;28;20753;-73
2022/01/20 10:49:48;;;;;;;8.47;1.30;;;;;;;-145.18;100.00;47572.72;5076960;28;20272;-73
2022/01/20 10:52:16;;;;;;;28.03;2.07;;;;;;;-145.18;100.00;47580.53;5049200;28;20664;-73
2022/01/20 10:54:45;;;;;;;12.43;1.40;;;;;;;-145.18;100.00;47555.13;5065943;28;20282;-73
2022/01/20 10:57:13;;;;;;;8.30;1.67;;;;;;;-145.18;100.00;47535.59;5065121;28;20278;-73
2022/01/20 10:59:53;;;;;;;16.23;1.97;;;;;;;-145.18;100.00;47574.66;5066119;28;20274;-73
2022/01/20 11:02:27;;;;;;;11.27;2.23;;;;;;;-145.18;100.00;47566.84;5065658;28;20297;-73
2022/01/20 11:04:53;;;;;;;8.40;1.80;;;;;;;-145.18;100.00;47582.47;5078842;28;20757;-73
2022/01/20 11:07:19;;;;;;;9.13;1.60;;;;;;;-145.18;100.00;47623.50;5065744;28;20288;-73
2022/01/20 11:09:49;;;;;;;10.53;1.80;;;;;;;-145.18;100.00;47652.81;5071702;28;20360;-72
2022/01/20 11:12:17;;;;;;;10.63;1.87;;;;;;;-145.18;100.00;47670.41;5065419;28;20285;-72
2022/01/20 11:14:44;;;;;;;5.87;0.77;;;;;;;-145.18;100.00;47682.13;5065679;28;20360;-72
2022/01/20 11:17:28;;;;;;;7.40;0.53;;;;;;;-145.18;100.00;47703.63;5065073;28;20280;-73
2022/01/20 11:20:07;;;;;;;8.53;1.20;;;;;;;-145.18;100.00;47689.94;5064664;28;20311;-72
2022/01/20 11:22:32;;;;;;;4.47;0.87;;;;;;;-145.18;100.00;47719.25;5050296;28;20261;-72
2022/01/20 11:25:05;;;;;;;9.17;1.20;;;;;;;-145.18;100.00;47707.53;5065187;28;20349;-72
2022/01/20 11:27:41;;;;;;;10.53;1.60;;;;;;;-145.18;100.00;47705.56;5065975;28;20036;-72
2022/01/20 11:30:17;;;;;;;12.87;1.00;;;;;;;-145.18;100.00;47699.72;5065420;28;20372;-72
2022/01/20 11:32:55;;;;;;;21.33;1.87;;;;;;;-145.18;100.00;47678.22;5065797;28;20265;-72
2022/01/20 11:35:21;;;;;;;10.60;2.50;;;;;;;-145.18;100.00;47645.00;5065550;28;20033;-72
2022/01/20 11:38:06;;;;;;;15.27;1.70;;;;;;;-145.18;100.00;47617.66;5066021;28;20276;-72
2022/01/20 11:40:32;;;;;;;15.40;1.43;;;;;;;-145.18;100.00;47625.47;5065980;28;20260;-72
2022/01/20 11:43:07;;;;;;;12.17;1.93;;;;;;;-145.18;100.00;47592.25;5065596;28;20265;-72
2022/01/20 11:45:40;;;;;;;8.90;1.25;;;;;;;-145.18;100.00;47627.41;5065352;28;20040;-72
2022/01/20 11:48:23;;;;;;;9.67;1.80;;;;;;;-145.18;100.00;47623.50;5065482;28;20053;-72
2022/01/20 11:51:05;;;;;;;14.00;1.40;;;;;;;-145.18;100.00;47637.19;5067554;28;20422;-72
2022/01/20 11:53:31;;;;;;;7.77;1.33;;;;;;;-145.18;100.00;47627.41;5069601;28;20854;-72
2022/01/20 11:55:57;;;;;;;9.57;1.60;;;;;;;-145.18;100.00;47650.88;5069140;28;20281;-72
2022/01/20 11:58:25;;;;;;;12.40;1.33;;;;;;;-145.18;100.00;47629.38;5051579;28;20052;-72
2022/01/20 12:01:01;;;;;;;16.20;1.60;;;;;;;-145.18;100.00;47635.22;5069263;28;20024;-72
2022/01/20 12:03:27;;;;;;;;;;;;;;;-145.18;100.00;47643.03;5069315;28;20844;-72
2022/01/20 12:06:14;;;;;;;15.45;3.33;;;;;;;-145.18;100.00;47660.63;5068963;28;20054;-72
2022/01/20 12:09:01;;;;;;;14.43;1.90;;;;;;;-145.18;100.00;47676.25;5054723;28;20333;-71
2022/01/20 12:11:40;;;;;;;12.13;1.53;;;;;;;-145.18;100.00;47687.97;5069301;28;20265;-71
2022/01/20 12:14:07;;;;;;;25.50;2.27;;;;;;;-145.18;100.00;47684.06;5068741;28;21038;-71
2022/01/20 12:16:34;;;;;;;25.33;2.47;;;;;;;-145.18;100.00;47668.44;5069488;28;20295;-72
2022/01/20 12:19:00;;;;;;;17.77;2.73;;;;;;;-145.18;100.00;47641.09;5068452;28;20278;-72
2022/01/20 12:21:32;;;;;;;19.17;2.50;;;;;;;-145.18;100.00;47652.81;5069155;28;20316;-72